Valley, Pennsylvania
Current Conditions -  °F | °C
As of 8:01 PM on Monday 22 Dec 2014 (Local Time) from KSEG Reporting Station
Freezing Rain Freezing Rain  
Wind Chill: 33°   Ceiling: 3100
Heat Index: 33°   Visibility: 2mi
Dew Point: 31°   Wind: 0mph
Humidity: 92%   Direction: NA
Pressure: 30.2"   Gusts: NA
Location:  41.0117°N, 76.6578°W
Report Text: KSEG 230101Z AUTO 00000KT 2SM FZRA BR FEW008 OVC031 01/M01 A3020 RMK AO2 P0001 I1001 T00061006
Loading
Personal Weather Stations






























Interactive Weather Map New forecast layout! Learn more

10-Day Weather Forecast

Advertisements
Track Severe Weather on mobile